Map

Track Data

SID SEASON NUMBER BASIN SUBBASIN NAME ISO_TIME NATURE LAT LON WMO_WIND WMO_PRES WMO_AGENCY TRACK_TYPE DIST2LAND LANDFALL IFLAG USA_AGENCY USA_ATCF_ID USA_LAT USA_LON USA_RECORD USA_STATUS USA_WIND USA_PRES USA_SSHS USA_R34_NE USA_R34_SE USA_R34_SW USA_R34_NW USA_R50_NE USA_R50_SE USA_R50_SW USA_R50_NW USA_R64_NE USA_R64_SE USA_R64_SW USA_R64_NW USA_POCI USA_ROCI USA_RMW USA_EYE TOKYO_LAT TOKYO_LON TOKYO_GRADE TOKYO_WIND TOKYO_PRES TOKYO_R50_DIR TOKYO_R50_LONG TOKYO_R50_SHORT TOKYO_R30_DIR TOKYO_R30_LONG TOKYO_R30_SHORT TOKYO_LAND CMA_LAT CMA_LON CMA_CAT CMA_WIND CMA_PRES HKO_LAT HKO_LON HKO_CAT HKO_WIND HKO_PRES NEWDELHI_LAT NEWDELHI_LON NEWDELHI_GRADE NEWDELHI_WIND NEWDELHI_PRES NEWDELHI_CI NEWDELHI_DP NEWDELHI_POCI REUNION_LAT REUNION_LON REUNION_TYPE REUNION_WIND REUNION_PRES REUNION_TNUM REUNION_CI REUNION_RMW REUNION_R34_NE REUNION_R34_SE REUNION_R34_SW REUNION_R34_NW REUNION_R50_NE REUNION_R50_SE REUNION_R50_SW REUNION_R50_NW REUNION_R64_NE REUNION_R64_SE REUNION_R64_SW REUNION_R64_NW BOM_LAT BOM_LON BOM_TYPE BOM_WIND BOM_PRES BOM_TNUM BOM_CI BOM_RMW BOM_R34_NE BOM_R34_SE BOM_R34_SW BOM_R34_NW BOM_R50_NE BOM_R50_SE BOM_R50_SW BOM_R50_NW BOM_R64_NE BOM_R64_SE BOM_R64_SW BOM_R64_NW BOM_ROCI BOM_POCI BOM_EYE BOM_POS_METHOD BOM_PRES_METHOD NADI_LAT NADI_LON NADI_CAT NADI_WIND NADI_PRES WELLINGTON_LAT WELLINGTON_LON WELLINGTON_WIND WELLINGTON_PRES DS824_LAT DS824_LON DS824_STAGE DS824_WIND DS824_PRES TD9636_LAT TD9636_LON TD9636_STAGE TD9636_WIND TD9636_PRES TD9635_LAT TD9635_LON TD9635_WIND TD9635_PRES TD9635_ROCI NEUMANN_LAT NEUMANN_LON NEUMANN_CLASS NEUMANN_WIND NEUMANN_PRES MLC_LAT MLC_LON MLC_CLASS MLC_WIND MLC_PRES USA_GUST BOM_GUST BOM_GUST_PER REUNION_GUST REUNION_GUST_PER USA_SEAHGT USA_SEARAD_NE USA_SEARAD_SE USA_SEARAD_SW USA_SEARAD_NW STORM_SPEED STORM_DIR
1907150N18112 1907 23 WP MM NOT_NAMED 1907-05-29 16:00:00 NR 18.1000 112.200 main 195 195 __________O___ -1 18.1000 112.200 2 7 59
1907150N18112 1907 23 WP MM NOT_NAMED 1907-05-29 18:00:00 NR 18.2172 112.405 main 209 209 __________P___ -1 18.2172 112.405 2 7 59
1907150N18112 1907 23 WP MM NOT_NAMED 1907-05-29 21:00:00 NR 18.3990 112.724 main 223 223 __________P___ -1 18.3990 112.724 2 7 59
1907150N18112 1907 23 WP MM NOT_NAMED 1907-05-30 00:00:00 NR 18.5963 113.069 main 247 247 __________P___ -1 18.5963 113.069 2 8 59
1907150N18112 1907 23 WP MM NOT_NAMED 1907-05-30 03:00:00 NR 18.8187 113.458 main 277 273 __________P___ -1 18.8187 113.458 2 9 59
1907150N18112 1907 23 WP MM NOT_NAMED 1907-05-30 04:00:00 NR 18.9000 113.600 main 283 283 __________O___ -1 18.9000 113.600 2 10 59
1907150N18112 1907 23 WP MM NOT_NAMED 1907-05-30 06:00:00 NR 19.0746 113.905 main 309 309 __________P___ -1 19.0746 113.905 2 11 59
1907150N18112 1907 23 WP MM NOT_NAMED 1907-05-30 09:00:00 NR 19.3615 114.406 main 315 297 __________P___ -1 19.3615 114.406 2 12 59
1907150N18112 1907 23 WP MM NOT_NAMED 1907-05-30 12:00:00 NR 19.6703 114.947 main 297 281 __________P___ -1 19.6703 114.947 2 12 59
1907150N18112 1907 23 WP MM NOT_NAMED 1907-05-30 15:00:00 NR 19.9916 115.510 main 285 277 __________P___ -1 19.9916 115.510 2 12 59
1907150N18112 1907 23 WP MM NOT_NAMED 1907-05-30 16:00:00 NR 20.1000 115.700 main 280 269 __________O___ -1 20.1000 115.700 3 12 59
1907150N18112 1907 23 WP MM NOT_NAMED 1907-05-30 18:00:00 NR 20.3028 116.070 main 270 245 __________P___ -1 20.3028 116.070 3 12 60
1907150N18112 1907 23 WP MM NOT_NAMED 1907-05-30 21:00:00 NR 20.6133 116.637 main 248 232 __________P___ -1 20.6133 116.637 3 12 59
1907150N18112 1907 23 WP MM NOT_NAMED 1907-05-31 00:00:00 NR 20.9370 117.216 main 234 221 __________P___ -1 20.9370 117.216 3 13 59
1907150N18112 1907 23 WP MM NOT_NAMED 1907-05-31 03:00:00 NR 21.2802 117.803 main 223 221 __________P___ -1 21.2802 117.803 3 13 58
1907150N18112 1907 23 WP MM NOT_NAMED 1907-05-31 04:00:00 NR 21.4000 118.000 main 227 215 __________O___ -1 21.4000 118.000 4 13 56
1907150N18112 1907 23 WP MM NOT_NAMED 1907-05-31 06:00:00 NR 21.6519 118.400 main 215 144 __________P___ -1 21.6519 118.400 4 14 55
1907150N18112 1907 23 WP MM NOT_NAMED 1907-05-31 09:00:00 NR 22.0490 119.005 main 144 70 __________P___ -1 22.0490 119.005 4 14 54
1907150N18112 1907 23 WP MM NOT_NAMED 1907-05-31 12:00:00 NR 22.4579 119.611 main 70 0 __________P___ -1 22.4579 119.611 4 14 54
1907150N18112 1907 23 WP MM NOT_NAMED 1907-05-31 15:00:00 NR 22.8662 120.206 main 0 0 __________P___ -1 22.8662 120.206 4 14 53
1907150N18112 1907 23 WP MM NOT_NAMED 1907-05-31 16:00:00 NR 23.0000 120.400 main 0 0 __________O___ -1 23.0000 120.400 4 13 54
1907150N18112 1907 23 WP MM NOT_NAMED 1907-05-31 18:00:00 NR 23.2336 120.759 main 0 0 __________P___ -1 23.2336 120.759 4 12 55
1907150N18112 1907 23 WP MM NOT_NAMED 1907-05-31 21:00:00 NR 23.5777 121.284 main 0 0 __________P___ -1 23.5777 121.284 4 12 54
1907150N18112 1907 23 WP MM NOT_NAMED 1907-06-01 00:00:00 NR 23.9400 121.819 main 30 23 __________P___ -1 23.9400 121.819 4 13 53
1907150N18112 1907 23 WP MM NOT_NAMED 1907-06-01 03:00:00 NR 24.3486 122.394 main 55 51 __________P___ -1 24.3486 122.394 4 14 52
1907150N18112 1907 23 WP MM NOT_NAMED 1907-06-01 04:00:00 NR 24.5000 122.600 main 70 70 __________O___ -1 24.5000 122.600 4 15 51
1907150N18112 1907 23 WP MM NOT_NAMED 1907-06-01 06:00:00 NR 24.8301 123.057 main 113 111 __________P___ -1 24.8301 123.057 4 17 51
1907150N18112 1907 23 WP MM NOT_NAMED 1907-06-01 09:00:00 NR 25.3753 123.793 main 186 186 __________P___ -1 25.3753 123.793 4 18 50
1907150N18112 1907 23 WP MM NOT_NAMED 1907-06-01 12:00:00 NR 25.9666 124.565 main 283 283 __________P___ -1 25.9666 124.565 4 19 49
1907150N18112 1907 23 WP MM NOT_NAMED 1907-06-01 15:00:00 NR 26.5885 125.344 main 375 384 __________P___ -1 26.5885 125.344 4 19 48
1907150N18112 1907 23 WP MM NOT_NAMED 1907-06-01 16:00:00 NR 26.8000 125.600 main 412 412 __________O___ -1 26.8000 125.600 4 19 47
1907150N18112 1907 23 WP MM NOT_NAMED 1907-06-01 18:00:00 NR 27.2268 126.102 main 459 453 __________P___ -1 27.2268 126.102 4 18 46
1907150N18112 1907 23 WP MM NOT_NAMED 1907-06-01 21:00:00 NR 27.8743 126.834 main 490 391 __________P___ -1 27.8743 126.834 4 18 45
1907150N18112 1907 23 WP MM NOT_NAMED 1907-06-02 00:00:00 NR 28.5274 127.551 main 391 288 __________P___ -1 28.5274 127.551 4 18 44
1907150N18112 1907 23 WP MM NOT_NAMED 1907-06-02 03:00:00 NR 29.1821 128.262 main 288 258 __________P___ -1 29.1821 128.262 4 18 44
1907150N18112 1907 23 WP MM NOT_NAMED 1907-06-02 04:00:00 NR 29.4000 128.500 main 258 __________O___ -1 29.4000 128.500 2 18 43

Digital Typhoon Data and Search

About IBTrACS Database

This database is a web-friendly format of International Best Track Archive for Climate Stewardship (IBTrACS), a global best track data archive curated by NOAA dating back to 1842.

Updated: 2021-10-21